<?xml version="1.0" encoding="UTF-8" standalone="no" ?><gpx xmlns="http://www.topografix.com/GPX/1/1" xmlns:gpxx="http://www.garmin.com/xmlschemas/GpxExtensions/v3" xmlns:gpxtrkx="http://www.garmin.com/xmlschemas/TrackStatsExtension/v1" xmlns:wptx1="http://www.garmin.com/xmlschemas/WaypointExtension/v1" xmlns:gpxtpx="http://www.garmin.com/xmlschemas/TrackPointExtension/v1" creator="Oregon 750t" version="1.1" xmlns:xsi="http://www.w3.org/2001/XMLSchema-instance" xsi:schemaLocation="http://www.topografix.com/GPX/1/1 http://www.topografix.com/GPX/1/1/gpx.xsd http://www.garmin.com/xmlschemas/GpxExtensions/v3 http://www8.garmin.com/xmlschemas/GpxExtensionsv3.xsd http://www.garmin.com/xmlschemas/TrackStatsExtension/v1 http://www8.garmin.com/xmlschemas/TrackStatsExtension.xsd http://www.garmin.com/xmlschemas/WaypointExtension/v1 http://www8.garmin.com/xmlschemas/WaypointExtensionv1.xsd http://www.garmin.com/xmlschemas/TrackPointExtension/v1 http://www.garmin.com/xmlschemas/TrackPointExtensionv1.xsd"><metadata><link href="http://www.garmin.com"><text>Garmin International</text></link><time>2021-09-30T09:58:06Z</time></metadata><trk><name>Vouzon 21-09-30</name><extensions><gpxx:TrackExtension><gpxx:DisplayColor>Cyan</gpxx:DisplayColor></gpxx:TrackExtension><gpxtrkx:TrackStatsExtension><gpxtrkx:Distance>9474.000</gpxtrkx:Distance><gpxtrkx:TimerTime>7265</gpxtrkx:TimerTime><gpxtrkx:TotalElapsedTime>10728</gpxtrkx:TotalElapsedTime><gpxtrkx:MovingTime>6731</gpxtrkx:MovingTime><gpxtrkx:StoppedTime>539</gpxtrkx:StoppedTime><gpxtrkx:MovingSpeed>1.408</gpxtrkx:MovingSpeed><gpxtrkx:MaxSpeed>5.244</gpxtrkx:MaxSpeed><gpxtrkx:MaxElevation>141.729</gpxtrkx:MaxElevation><gpxtrkx:MinElevation>110.105</gpxtrkx:MinElevation><gpxtrkx:Ascent>35.000</gpxtrkx:Ascent><gpxtrkx:Descent>40.722</gpxtrkx:Descent><gpxtrkx:AvgAscentRate>0.019</gpxtrkx:AvgAscentRate><gpxtrkx:MaxAscentRate>0.037</gpxtrkx:MaxAscentRate><gpxtrkx:AvgDescentRate>0.016</gpxtrkx:AvgDescentRate><gpxtrkx:MaxDescentRate>-0.084</gpxtrkx:MaxDescentRate><gpxtrkx:Calories>68</gpxtrkx:Calories></gpxtrkx:TrackStatsExtension></extensions><trkseg><trkpt lat="47.6498242747" lon="2.0541034732"><ele>141.00</ele><time>2021-09-30T06:59:18Z</time></trkpt><trkpt lat="47.6498204190" lon="2.0540098473"><ele>140.96</ele><time>2021-09-30T06:59:39Z</time></trkpt><trkpt lat="47.6499189902" lon="2.0538868848"><ele>140.97</ele><time>2021-09-30T06:59:57Z</time></trkpt><trkpt lat="47.6500522625" lon="2.0538158063"><ele>140.94</ele><time>2021-09-30T07:00:13Z</time></trkpt><trkpt lat="47.6501143724" lon="2.0537822787"><ele>140.93</ele><time>2021-09-30T07:00:19Z</time></trkpt><trkpt lat="47.6501514204" lon="2.0537720527"><ele>140.92</ele><time>2021-09-30T07:00:22Z</time></trkpt><trkpt lat="47.6502291206" lon="2.0537091885"><ele>140.90</ele><time>2021-09-30T07:00:31Z</time></trkpt><trkpt lat="47.6502532605" lon="2.0533624291"><ele>140.60</ele><time>2021-09-30T07:00:49Z</time></trkpt><trkpt lat="47.6502008736" lon="2.0530600939"><ele>140.46</ele><time>2021-09-30T07:01:05Z</time></trkpt><trkpt lat="47.6500928309" lon="2.0527944714"><ele>140.54</ele><time>2021-09-30T07:01:20Z</time></trkpt><trkpt lat="47.6500139572" lon="2.0525176171"><ele>140.53</ele><time>2021-09-30T07:01:36Z</time></trkpt><trkpt lat="47.6499920804" lon="2.0523629710"><ele>140.82</ele><time>2021-09-30T07:01:49Z</time></trkpt><trkpt lat="47.6500108559" lon="2.0523093268"><ele>140.80</ele><time>2021-09-30T07:02:12Z</time></trkpt><trkpt lat="47.6500542741" lon="2.0522347279"><ele>140.90</ele><time>2021-09-30T07:02:21Z</time></trkpt><trkpt lat="47.6502200682" lon="2.0520965103"><ele>141.03</ele><time>2021-09-30T07:02:43Z</time></trkpt><trkpt lat="47.6502452977" lon="2.0520980190"><ele>140.99</ele><time>2021-09-30T07:02:45Z</time></trkpt><trkpt lat="47.6502756402" lon="2.0520822611"><ele>140.96</ele><time>2021-09-30T07:02:48Z</time></trkpt><trkpt lat="47.6502842735" lon="2.0520738792"><ele>140.96</ele><time>2021-09-30T07:02:49Z</time></trkpt><trkpt lat="47.6504136901" lon="2.0519745536"><ele>140.93</ele><time>2021-09-30T07:03:01Z</time></trkpt><trkpt lat="47.6505682524" lon="2.0518083405"><ele>140.81</ele><time>2021-09-30T07:03:15Z</time></trkpt><trkpt lat="47.6507380698" lon="2.0516374335"><ele>140.66</ele><time>2021-09-30T07:03:33Z</time></trkpt><trkpt lat="47.6508183684" lon="2.0515842922"><ele>140.65</ele><time>2021-09-30T07:03:39Z</time></trkpt><trkpt lat="47.6508290973" lon="2.0515764970"><ele>140.66</ele><time>2021-09-30T07:03:40Z</time></trkpt><trkpt lat="47.6508476213" lon="2.0515609905"><ele>140.73</ele><time>2021-09-30T07:03:42Z</time></trkpt><trkpt lat="47.6509316918" lon="2.0514842961"><ele>140.67</ele><time>2021-09-30T07:03:49Z</time></trkpt><trkpt lat="47.6512267347" lon="2.0512595773"><ele>140.34</ele><time>2021-09-30T07:04:14Z</time></trkpt><trkpt lat="47.6513067819" lon="2.0512004010"><ele>140.17</ele><time>2021-09-30T07:04:22Z</time></trkpt><trkpt lat="47.6513920259" lon="2.0511445776"><ele>140.07</ele><time>2021-09-30T07:04:30Z</time></trkpt><trkpt lat="47.6516834646" lon="2.0509296656"><ele>139.74</ele><time>2021-09-30T07:05:03Z</time></trkpt><trkpt lat="47.6517086942" lon="2.0509172603"><ele>139.71</ele><time>2021-09-30T07:05:05Z</time></trkpt><trkpt lat="47.6517799404" lon="2.0508551504"><ele>139.81</ele><time>2021-09-30T07:05:13Z</time></trkpt><trkpt lat="47.6519702934" lon="2.0507620275"><ele>139.62</ele><time>2021-09-30T07:05:29Z</time></trkpt><trkpt lat="47.6520122867" lon="2.0507129095"><ele>139.62</ele><time>2021-09-30T07:05:33Z</time></trkpt><trkpt lat="47.6520605665" lon="2.0506643783"><ele>139.62</ele><time>2021-09-30T07:05:40Z</time></trkpt><trkpt lat="47.6520915795" lon="2.0506537333"><ele>139.55</ele><time>2021-09-30T07:05:44Z</time></trkpt><trkpt lat="47.6521015540" lon="2.0506489556"><ele>139.54</ele><time>2021-09-30T07:05:45Z</time></trkpt><trkpt lat="47.6521883905" lon="2.0505979937"><ele>139.54</ele><time>2021-09-30T07:05:51Z</time></trkpt><trkpt lat="47.6526655722" lon="2.0503134280"><ele>139.60</ele><time>2021-09-30T07:06:24Z</time></trkpt><trkpt lat="47.6528061368" lon="2.0501636434"><ele>139.36</ele><time>2021-09-30T07:06:44Z</time></trkpt><trkpt lat="47.6529552508" lon="2.0500094164"><ele>139.52</ele><time>2021-09-30T07:07:09Z</time></trkpt><trkpt lat="47.6534712408" lon="2.0496117789"><ele>139.17</ele><time>2021-09-30T07:08:13Z</time></trkpt><trkpt lat="47.6536118053" lon="2.0495287143"><ele>139.11</ele><time>2021-09-30T07:08:28Z</time></trkpt><trkpt lat="47.6536558941" lon="2.0494943485"><ele>139.15</ele><time>2021-09-30T07:08:32Z</time></trkpt><trkpt lat="47.6537792757" lon="2.0493861381"><ele>138.98</ele><time>2021-09-30T07:08:49Z</time></trkpt><trkpt lat="47.6540141366" lon="2.0492632594"><ele>138.68</ele><time>2021-09-30T07:09:06Z</time></trkpt><trkpt lat="47.6542013045" lon="2.0490954537"><ele>138.45</ele><time>2021-09-30T07:09:20Z</time></trkpt><trkpt lat="47.6545215771" lon="2.0487982314"><ele>137.86</ele><time>2021-09-30T07:09:51Z</time></trkpt><trkpt lat="47.6545955054" lon="2.0487403125"><ele>137.71</ele><time>2021-09-30T07:09:57Z</time></trkpt><trkpt lat="47.6547035482" lon="2.0486464351"><ele>137.46</ele><time>2021-09-30T07:10:07Z</time></trkpt><trkpt lat="47.6547134388" lon="2.0486374665"><ele>137.44</ele><time>2021-09-30T07:10:08Z</time></trkpt><trkpt lat="47.6548232418" lon="2.0485725068"><ele>137.37</ele><time>2021-09-30T07:10:15Z</time></trkpt><trkpt lat="47.6549722720" lon="2.0484840777"><ele>136.89</ele><time>2021-09-30T07:10:29Z</time></trkpt><trkpt lat="47.6549835876" lon="2.0484803058"><ele>136.84</ele><time>2021-09-30T07:10:30Z</time></trkpt><trkpt lat="47.6550037041" lon="2.0484736003"><ele>136.74</ele><time>2021-09-30T07:10:32Z</time></trkpt><trkpt lat="47.6550388243" lon="2.0484524779"><ele>136.61</ele><time>2021-09-30T07:10:35Z</time></trkpt><trkpt lat="47.6550484635" lon="2.0484435931"><ele>136.58</ele><time>2021-09-30T07:10:36Z</time></trkpt><trkpt lat="47.6551582664" lon="2.0483462792"><ele>136.29</ele><time>2021-09-30T07:10:48Z</time></trkpt><trkpt lat="47.6552195381" lon="2.0483263303"><ele>136.10</ele><time>2021-09-30T07:10:52Z</time></trkpt><trkpt lat="47.6553250663" lon="2.0482486300"><ele>135.63</ele><time>2021-09-30T07:11:03Z</time></trkpt><trkpt lat="47.6553347055" lon="2.0482430141"><ele>135.54</ele><time>2021-09-30T07:11:04Z</time></trkpt><trkpt lat="47.6553582586" lon="2.0482273400"><ele>135.46</ele><time>2021-09-30T07:11:06Z</time></trkpt><trkpt lat="47.6554336119" lon="2.0481441915"><ele>135.03</ele><time>2021-09-30T07:11:15Z</time></trkpt><trkpt lat="47.6554647088" lon="2.0481164474"><ele>134.88</ele><time>2021-09-30T07:11:18Z</time></trkpt><trkpt lat="47.6554751862" lon="2.0481094066"><ele>134.80</ele><time>2021-09-30T07:11:19Z</time></trkpt><trkpt lat="47.6557187643" lon="2.0479031280"><ele>134.11</ele><time>2021-09-30T07:11:41Z</time></trkpt><trkpt lat="47.6557461731" lon="2.0478728693"><ele>133.97</ele><time>2021-09-30T07:11:44Z</time></trkpt><trkpt lat="47.6558352727" lon="2.0478293672"><ele>133.58</ele><time>2021-09-30T07:11:54Z</time></trkpt><trkpt lat="47.6560370252" lon="2.0477028843"><ele>133.24</ele><time>2021-09-30T07:12:09Z</time></trkpt><trkpt lat="47.6561616641" lon="2.0475299656"><ele>133.32</ele><time>2021-09-30T07:12:21Z</time></trkpt><trkpt lat="47.6560134720" lon="2.0473431330"><ele>133.54</ele><time>2021-09-30T07:12:36Z</time></trkpt><trkpt lat="47.6558936946" lon="2.0471885707"><ele>133.64</ele><time>2021-09-30T07:12:49Z</time></trkpt><trkpt lat="47.6558832172" lon="2.0471707173"><ele>133.64</ele><time>2021-09-30T07:12:50Z</time></trkpt><trkpt lat="47.6558655314" lon="2.0471475832"><ele>133.61</ele><time>2021-09-30T07:12:52Z</time></trkpt><trkpt lat="47.6558063552" lon="2.0470658597"><ele>133.70</ele><time>2021-09-30T07:12:59Z</time></trkpt><trkpt lat="47.6556659583" lon="2.0468957908"><ele>133.95</ele><time>2021-09-30T07:13:14Z</time></trkpt><trkpt lat="47.6555947959" lon="2.0467678830"><ele>134.00</ele><time>2021-09-30T07:13:26Z</time></trkpt><trkpt lat="47.6554732583" lon="2.0465805475"><ele>133.99</ele><time>2021-09-30T07:13:40Z</time></trkpt><trkpt lat="47.6554500405" lon="2.0465388894"><ele>133.98</ele><time>2021-09-30T07:13:43Z</time></trkpt><trkpt lat="47.6552809775" lon="2.0462318603"><ele>134.23</ele><time>2021-09-30T07:14:06Z</time></trkpt><trkpt lat="47.6552164368" lon="2.0460802317"><ele>134.36</ele><time>2021-09-30T07:14:20Z</time></trkpt><trkpt lat="47.6551637147" lon="2.0458020363"><ele>134.46</ele><time>2021-09-30T07:14:37Z</time></trkpt><trkpt lat="47.6552621182" lon="2.0456878748"><ele>134.15</ele><time>2021-09-30T07:14:51Z</time></trkpt><trkpt lat="47.6553665567" lon="2.0455840230"><ele>133.75</ele><time>2021-09-30T07:15:02Z</time></trkpt><trkpt lat="47.6555243880" lon="2.0454984438"><ele>133.75</ele><time>2021-09-30T07:15:20Z</time></trkpt><trkpt lat="47.6556653716" lon="2.0453385171"><ele>133.75</ele><time>2021-09-30T07:15:37Z</time></trkpt><trkpt lat="47.6558319200" lon="2.0452505071"><ele>132.79</ele><time>2021-09-30T07:15:54Z</time></trkpt><trkpt lat="47.6558423974" lon="2.0452450588"><ele>132.81</ele><time>2021-09-30T07:15:55Z</time></trkpt><trkpt lat="47.6560375281" lon="2.0451799314"><ele>133.09</ele><time>2021-09-30T07:16:11Z</time></trkpt><trkpt lat="47.6560556330" lon="2.0451721363"><ele>133.09</ele><time>2021-09-30T07:16:12Z</time></trkpt><trkpt lat="47.6561604906" lon="2.0450557955"><ele>132.92</ele><time>2021-09-30T07:16:21Z</time></trkpt><trkpt lat="47.6562743168" lon="2.0449839626"><ele>132.85</ele><time>2021-09-30T07:16:29Z</time></trkpt><trkpt lat="47.6563134603" lon="2.0449314080"><ele>132.75</ele><time>2021-09-30T07:16:33Z</time></trkpt><trkpt lat="47.6564158872" lon="2.0448756684"><ele>132.59</ele><time>2021-09-30T07:16:42Z</time></trkpt><trkpt lat="47.6565442979" lon="2.0446956251"><ele>132.20</ele><time>2021-09-30T07:16:54Z</time></trkpt><trkpt lat="47.6567168813" lon="2.0446232893"><ele>131.82</ele><time>2021-09-30T07:17:06Z</time></trkpt><trkpt lat="47.6568163745" lon="2.0445367880"><ele>131.49</ele><time>2021-09-30T07:17:15Z</time></trkpt><trkpt lat="47.6569163706" lon="2.0444422401"><ele>131.02</ele><time>2021-09-30T07:17:27Z</time></trkpt><trkpt lat="47.6570018660" lon="2.0443056989"><ele>130.67</ele><time>2021-09-30T07:17:37Z</time></trkpt><trkpt lat="47.6571435202" lon="2.0442017633"><ele>130.34</ele><time>2021-09-30T07:17:48Z</time></trkpt><trkpt lat="47.6572601963" lon="2.0440920442"><ele>130.05</ele><time>2021-09-30T07:17:58Z</time></trkpt><trkpt lat="47.6574043650" lon="2.0439989213"><ele>129.91</ele><time>2021-09-30T07:18:08Z</time></trkpt><trkpt lat="47.6575122401" lon="2.0439076424"><ele>129.68</ele><time>2021-09-30T07:18:20Z</time></trkpt><trkpt lat="47.6577226259" lon="2.0437380765"><ele>129.64</ele><time>2021-09-30T07:18:37Z</time></trkpt><trkpt lat="47.6579536311" lon="2.0436273515"><ele>129.04</ele><time>2021-09-30T07:18:54Z</time></trkpt><trkpt lat="47.6581037510" lon="2.0434944145"><ele>128.39</ele><time>2021-09-30T07:19:11Z</time></trkpt><trkpt lat="47.6582307369" lon="2.0434212405"><ele>127.99</ele><time>2021-09-30T07:19:22Z</time></trkpt><trkpt lat="47.6582438964" lon="2.0434157085"><ele>127.92</ele><time>2021-09-30T07:19:23Z</time></trkpt><trkpt lat="47.6582567208" lon="2.0434048958"><ele>127.84</ele><time>2021-09-30T07:19:24Z</time></trkpt><trkpt lat="47.6583308168" lon="2.0433595497"><ele>127.61</ele><time>2021-09-30T07:19:30Z</time></trkpt><trkpt lat="47.6584594790" lon="2.0432167221"><ele>127.37</ele><time>2021-09-30T07:19:43Z</time></trkpt><trkpt lat="47.6585901529" lon="2.0431306399"><ele>126.88</ele><time>2021-09-30T07:19:56Z</time></trkpt><trkpt lat="47.6586588845" lon="2.0431024767"><ele>126.75</ele><time>2021-09-30T07:20:02Z</time></trkpt><trkpt lat="47.6587511692" lon="2.0430205017"><ele>126.17</ele><time>2021-09-30T07:20:14Z</time></trkpt><trkpt lat="47.6588584576" lon="2.0428744052"><ele>125.58</ele><time>2021-09-30T07:20:26Z</time></trkpt><trkpt lat="47.6590643171" lon="2.0427445695"><ele>125.21</ele><time>2021-09-30T07:20:44Z</time></trkpt><trkpt lat="47.6590866968" lon="2.0427338406"><ele>125.21</ele><time>2021-09-30T07:20:46Z</time></trkpt><trkpt lat="47.6591174584" lon="2.0427074376"><ele>125.18</ele><time>2021-09-30T07:20:49Z</time></trkpt><trkpt lat="47.6591277681" lon="2.0427019056"><ele>125.14</ele><time>2021-09-30T07:20:50Z</time></trkpt><trkpt lat="47.6594129205" lon="2.0424947888"><ele>124.29</ele><time>2021-09-30T07:21:13Z</time></trkpt><trkpt lat="47.6596462727" lon="2.0423637796"><ele>123.95</ele><time>2021-09-30T07:21:31Z</time></trkpt><trkpt lat="47.6598200295" lon="2.0422415715"><ele>123.84</ele><time>2021-09-30T07:21:45Z</time></trkpt><trkpt lat="47.6599233784" lon="2.0423195232"><ele>123.59</ele><time>2021-09-30T07:22:00Z</time></trkpt><trkpt lat="47.6599797886" lon="2.0424242970"><ele>123.25</ele><time>2021-09-30T07:22:10Z</time></trkpt><trkpt lat="47.6600501966" lon="2.0425632689"><ele>123.12</ele><time>2021-09-30T07:22:22Z</time></trkpt><trkpt lat="47.6601426490" lon="2.0428229403"><ele>122.88</ele><time>2021-09-30T07:22:36Z</time></trkpt><trkpt lat="47.6602592412" lon="2.0430184901"><ele>123.23</ele><time>2021-09-30T07:22:52Z</time></trkpt><trkpt lat="47.6603410486" lon="2.0430699550"><ele>123.37</ele><time>2021-09-30T07:22:59Z</time></trkpt><trkpt lat="47.6603524480" lon="2.0430754032"><ele>123.38</ele><time>2021-09-30T07:23:00Z</time></trkpt><trkpt lat="47.6603640988" lon="2.0430769958"><ele>123.39</ele><time>2021-09-30T07:23:01Z</time></trkpt><trkpt lat="47.6604728960" lon="2.0431049913"><ele>123.34</ele><time>2021-09-30T07:23:10Z</time></trkpt><trkpt lat="47.6605479140" lon="2.0431402791"><ele>123.18</ele><time>2021-09-30T07:23:17Z</time></trkpt><trkpt lat="47.6606220938" lon="2.0431440510"><ele>123.23</ele><time>2021-09-30T07:23:24Z</time></trkpt><trkpt lat="47.6607626583" lon="2.0431693643"><ele>123.35</ele><time>2021-09-30T07:23:35Z</time></trkpt><trkpt lat="47.6607929170" lon="2.0432363357"><ele>123.34</ele><time>2021-09-30T07:23:38Z</time></trkpt><trkpt lat="47.6609963458" lon="2.0433012955"><ele>123.36</ele><time>2021-09-30T07:23:53Z</time></trkpt><trkpt lat="47.6610210724" lon="2.0432998706"><ele>123.36</ele><time>2021-09-30T07:23:55Z</time></trkpt><trkpt lat="47.6611845195" lon="2.0433862880"><ele>123.32</ele><time>2021-09-30T07:24:09Z</time></trkpt><trkpt lat="47.6612218190" lon="2.0435788203"><ele>123.41</ele><time>2021-09-30T07:24:22Z</time></trkpt><trkpt lat="47.6612289436" lon="2.0437381603"><ele>123.36</ele><time>2021-09-30T07:24:31Z</time></trkpt><trkpt lat="47.6612270996" lon="2.0437540021"><ele>123.35</ele><time>2021-09-30T07:24:32Z</time></trkpt><trkpt lat="47.6612180471" lon="2.0440402441"><ele>123.31</ele><time>2021-09-30T07:24:48Z</time></trkpt><trkpt lat="47.6612227410" lon="2.0440560859"><ele>123.27</ele><time>2021-09-30T07:24:49Z</time></trkpt><trkpt lat="47.6612341404" lon="2.0442408230"><ele>123.05</ele><time>2021-09-30T07:25:00Z</time></trkpt><trkpt lat="47.6612083241" lon="2.0444128197"><ele>122.86</ele><time>2021-09-30T07:25:13Z</time></trkpt><trkpt lat="47.6611655764" lon="2.0446692221"><ele>122.89</ele><time>2021-09-30T07:25:29Z</time></trkpt><trkpt lat="47.6611625589" lon="2.0448502712"><ele>123.10</ele><time>2021-09-30T07:25:45Z</time></trkpt><trkpt lat="47.6611682586" lon="2.0450816955"><ele>123.10</ele><time>2021-09-30T07:25:58Z</time></trkpt><trkpt lat="47.6611401793" lon="2.0451419614"><ele>123.10</ele><time>2021-09-30T07:26:03Z</time></trkpt><trkpt lat="47.6610301249" lon="2.0453072526"><ele>123.10</ele><time>2021-09-30T07:26:17Z</time></trkpt><trkpt lat="47.6610250119" lon="2.0453212503"><ele>123.10</ele><time>2021-09-30T07:26:18Z</time></trkpt><trkpt lat="47.6610111818" lon="2.0453477371"><ele>123.10</ele><time>2021-09-30T07:26:20Z</time></trkpt><trkpt lat="47.6610126905" lon="2.0454413630"><ele>123.63</ele><time>2021-09-30T07:26:29Z</time></trkpt><trkpt lat="47.6610425301" lon="2.0455182251"><ele>123.78</ele><time>2021-09-30T07:26:35Z</time></trkpt><trkpt lat="47.6610505767" lon="2.0456104260"><ele>124.03</ele><time>2021-09-30T07:26:41Z</time></trkpt><trkpt lat="47.6610561926" lon="2.0456258487"><ele>124.09</ele><time>2021-09-30T07:26:42Z</time></trkpt><trkpt lat="47.6610600483" lon="2.0456554368"><ele>124.16</ele><time>2021-09-30T07:26:44Z</time></trkpt><trkpt lat="47.6611875370" lon="2.0458746236"><ele>124.39</ele><time>2021-09-30T07:26:59Z</time></trkpt><trkpt lat="47.6613105834" lon="2.0462699141"><ele>124.56</ele><time>2021-09-30T07:27:24Z</time></trkpt><trkpt lat="47.6614501420" lon="2.0467284042"><ele>124.63</ele><time>2021-09-30T07:27:50Z</time></trkpt><trkpt lat="47.6615652256" lon="2.0470536221"><ele>124.97</ele><time>2021-09-30T07:28:10Z</time></trkpt><trkpt lat="47.6616572589" lon="2.0473662671"><ele>124.97</ele><time>2021-09-30T07:28:28Z</time></trkpt><trkpt lat="47.6617218833" lon="2.0475281216"><ele>125.10</ele><time>2021-09-30T07:28:40Z</time></trkpt><trkpt lat="47.6617932972" lon="2.0478644874"><ele>124.97</ele><time>2021-09-30T07:29:00Z</time></trkpt><trkpt lat="47.6618038584" lon="2.0479209814"><ele>124.97</ele><time>2021-09-30T07:29:05Z</time></trkpt><trkpt lat="47.6618096419" lon="2.0479336381"><ele>124.97</ele><time>2021-09-30T07:29:06Z</time></trkpt><trkpt lat="47.6618968137" lon="2.0481028687"><ele>124.70</ele><time>2021-09-30T07:29:18Z</time></trkpt><trkpt lat="47.6619507093" lon="2.0482826605"><ele>124.20</ele><time>2021-09-30T07:29:31Z</time></trkpt><trkpt lat="47.6620152500" lon="2.0483794715"><ele>123.69</ele><time>2021-09-30T07:30:11Z</time></trkpt><trkpt lat="47.6620175969" lon="2.0483797230"><ele>123.72</ele><time>2021-09-30T07:30:19Z</time></trkpt><trkpt lat="47.6620532200" lon="2.0484816469"><ele>123.93</ele><time>2021-09-30T07:30:38Z</time></trkpt><trkpt lat="47.6621750928" lon="2.0484492928"><ele>123.82</ele><time>2021-09-30T07:30:50Z</time></trkpt><trkpt lat="47.6622025017" lon="2.0484172739"><ele>123.83</ele><time>2021-09-30T07:30:53Z</time></trkpt><trkpt lat="47.6622795314" lon="2.0483616181"><ele>124.08</ele><time>2021-09-30T07:31:05Z</time></trkpt><trkpt lat="47.6623995602" lon="2.0483024418"><ele>123.69</ele><time>2021-09-30T07:31:17Z</time></trkpt><trkpt lat="47.6624087803" lon="2.0482941438"><ele>123.67</ele><time>2021-09-30T07:31:18Z</time></trkpt><trkpt lat="47.6625376940" lon="2.0481578540"><ele>123.78</ele><time>2021-09-30T07:31:31Z</time></trkpt><trkpt lat="47.6626467425" lon="2.0480923075"><ele>123.72</ele><time>2021-09-30T07:31:46Z</time></trkpt><trkpt lat="47.6626948547" lon="2.0480654854"><ele>123.38</ele><time>2021-09-30T07:31:55Z</time></trkpt><trkpt lat="47.6627942640" lon="2.0479864441"><ele>122.74</ele><time>2021-09-30T07:32:05Z</time></trkpt><trkpt lat="47.6628130395" lon="2.0479651541"><ele>122.69</ele><time>2021-09-30T07:32:07Z</time></trkpt><trkpt lat="47.6630804222" lon="2.0478099212"><ele>122.21</ele><time>2021-09-30T07:32:28Z</time></trkpt><trkpt lat="47.6632058155" lon="2.0477124397"><ele>121.67</ele><time>2021-09-30T07:32:40Z</time></trkpt><trkpt lat="47.6633109245" lon="2.0476123597"><ele>121.50</ele><time>2021-09-30T07:32:52Z</time></trkpt><trkpt lat="47.6633840147" lon="2.0475797541"><ele>121.16</ele><time>2021-09-30T07:32:58Z</time></trkpt><trkpt lat="47.6634773891" lon="2.0475102682"><ele>120.84</ele><time>2021-09-30T07:33:06Z</time></trkpt><trkpt lat="47.6634960808" lon="2.0474791713"><ele>120.79</ele><time>2021-09-30T07:33:09Z</time></trkpt><trkpt lat="47.6635516528" lon="2.0474412013"><ele>120.62</ele><time>2021-09-30T07:33:16Z</time></trkpt><trkpt lat="47.6637313608" lon="2.0472716354"><ele>120.13</ele><time>2021-09-30T07:33:35Z</time></trkpt><trkpt lat="47.6639585104" lon="2.0471205097"><ele>120.19</ele><time>2021-09-30T07:33:55Z</time></trkpt><trkpt lat="47.6640916150" lon="2.0470237825"><ele>120.12</ele><time>2021-09-30T07:34:07Z</time></trkpt><trkpt lat="47.6642419025" lon="2.0469041727"><ele>119.99</ele><time>2021-09-30T07:34:24Z</time></trkpt><trkpt lat="47.6643340196" lon="2.0468081161"><ele>119.78</ele><time>2021-09-30T07:34:38Z</time></trkpt><trkpt lat="47.6643845625" lon="2.0467843954"><ele>119.58</ele><time>2021-09-30T07:34:42Z</time></trkpt><trkpt lat="47.6645729877" lon="2.0466245525"><ele>119.23</ele><time>2021-09-30T07:34:57Z</time></trkpt><trkpt lat="47.6646612491" lon="2.0465647057"><ele>119.09</ele><time>2021-09-30T07:35:05Z</time></trkpt><trkpt lat="47.6647993829" lon="2.0465261489"><ele>118.87</ele><time>2021-09-30T07:35:15Z</time></trkpt><trkpt lat="47.6648174878" lon="2.0465245564"><ele>118.86</ele><time>2021-09-30T07:35:16Z</time></trkpt><trkpt lat="47.6650475711" lon="2.0463550743"><ele>118.54</ele><time>2021-09-30T07:35:35Z</time></trkpt><trkpt lat="47.6652225852" lon="2.0462366380"><ele>118.33</ele><time>2021-09-30T07:35:50Z</time></trkpt><trkpt lat="47.6652870420" lon="2.0462071337"><ele>118.18</ele><time>2021-09-30T07:35:55Z</time></trkpt><trkpt lat="47.6652980223" lon="2.0461976621"><ele>118.15</ele><time>2021-09-30T07:35:56Z</time></trkpt><trkpt lat="47.6653910615" lon="2.0461233985"><ele>117.68</ele><time>2021-09-30T07:36:05Z</time></trkpt><trkpt lat="47.6654082444" lon="2.0461088140"><ele>117.59</ele><time>2021-09-30T07:36:07Z</time></trkpt><trkpt lat="47.6654452085" lon="2.0460494701"><ele>117.44</ele><time>2021-09-30T07:36:11Z</time></trkpt><trkpt lat="47.6654877048" lon="2.0459902100"><ele>117.05</ele><time>2021-09-30T07:36:16Z</time></trkpt><trkpt lat="47.6656022016" lon="2.0458931476"><ele>115.74</ele><time>2021-09-30T07:36:29Z</time></trkpt><trkpt lat="47.6657474600" lon="2.0457718614"><ele>114.17</ele><time>2021-09-30T07:36:42Z</time></trkpt><trkpt lat="47.6659386512" lon="2.0456224121"><ele>113.38</ele><time>2021-09-30T07:36:57Z</time></trkpt><trkpt lat="47.6660644636" lon="2.0454986114"><ele>113.00</ele><time>2021-09-30T07:37:09Z</time></trkpt><trkpt lat="47.6661699917" lon="2.0454227552"><ele>112.64</ele><time>2021-09-30T07:37:19Z</time></trkpt><trkpt lat="47.6661775354" lon="2.0454095118"><ele>112.63</ele><time>2021-09-30T07:37:20Z</time></trkpt><trkpt lat="47.6662320178" lon="2.0453862939"><ele>112.59</ele><time>2021-09-30T07:37:25Z</time></trkpt><trkpt lat="47.6664813794" lon="2.0452085137"><ele>112.25</ele><time>2021-09-30T07:37:44Z</time></trkpt><trkpt lat="47.6666472573" lon="2.0451281313"><ele>112.33</ele><time>2021-09-30T07:37:59Z</time></trkpt><trkpt lat="47.6667862292" lon="2.0450631715"><ele>112.14</ele><time>2021-09-30T07:38:09Z</time></trkpt><trkpt lat="47.6669081859" lon="2.0449764188"><ele>112.16</ele><time>2021-09-30T07:38:20Z</time></trkpt><trkpt lat="47.6669374388" lon="2.0449608285"><ele>112.22</ele><time>2021-09-30T07:38:23Z</time></trkpt><trkpt lat="47.6670309808" lon="2.0448839664"><ele>112.21</ele><time>2021-09-30T07:38:32Z</time></trkpt><trkpt lat="47.6672185678" lon="2.0447359420"><ele>111.88</ele><time>2021-09-30T07:38:49Z</time></trkpt><trkpt lat="47.6673796680" lon="2.0446082018"><ele>111.87</ele><time>2021-09-30T07:39:04Z</time></trkpt><trkpt lat="47.6675014570" lon="2.0445165038"><ele>111.75</ele><time>2021-09-30T07:39:17Z</time></trkpt><trkpt lat="47.6676532533" lon="2.0443836506"><ele>111.73</ele><time>2021-09-30T07:39:32Z</time></trkpt><trkpt lat="47.6678499766" lon="2.0442164317"><ele>111.76</ele><time>2021-09-30T07:39:50Z</time></trkpt><trkpt lat="47.6680316124" lon="2.0440726820"><ele>111.92</ele><time>2021-09-30T07:40:06Z</time></trkpt><trkpt lat="47.6681456901" lon="2.0439868513"><ele>111.79</ele><time>2021-09-30T07:40:18Z</time></trkpt><trkpt lat="47.6682701614" lon="2.0438745338"><ele>111.80</ele><time>2021-09-30T07:40:32Z</time></trkpt><trkpt lat="47.6683858316" lon="2.0438007731"><ele>111.76</ele><time>2021-09-30T07:40:43Z</time></trkpt><trkpt lat="47.6684336085" lon="2.0436727814"><ele>111.77</ele><time>2021-09-30T07:40:55Z</time></trkpt><trkpt lat="47.6684007514" lon="2.0435354020"><ele>111.87</ele><time>2021-09-30T07:41:05Z</time></trkpt><trkpt lat="47.6683710795" lon="2.0433840249"><ele>111.89</ele><time>2021-09-30T07:41:14Z</time></trkpt><trkpt lat="47.6682817284" lon="2.0431886427"><ele>112.06</ele><time>2021-09-30T07:41:29Z</time></trkpt><trkpt lat="47.6681675669" lon="2.0428741537"><ele>112.16</ele><time>2021-09-30T07:41:50Z</time></trkpt><trkpt lat="47.6680717617" lon="2.0425142348"><ele>112.21</ele><time>2021-09-30T07:42:12Z</time></trkpt><trkpt lat="47.6679301914" lon="2.0421460178"><ele>112.00</ele><time>2021-09-30T07:42:35Z</time></trkpt><trkpt lat="47.6678330451" lon="2.0418150164"><ele>111.70</ele><time>2021-09-30T07:42:55Z</time></trkpt><trkpt lat="47.6677498128" lon="2.0416033734"><ele>111.66</ele><time>2021-09-30T07:43:08Z</time></trkpt><trkpt lat="47.6676422730" lon="2.0413035527"><ele>111.52</ele><time>2021-09-30T07:43:26Z</time></trkpt><trkpt lat="47.6675240882" lon="2.0409771614"><ele>111.54</ele><time>2021-09-30T07:43:48Z</time></trkpt><trkpt lat="47.6674594637" lon="2.0407386962"><ele>111.51</ele><time>2021-09-30T07:44:02Z</time></trkpt><trkpt lat="47.6673909836" lon="2.0405454934"><ele>111.45</ele><time>2021-09-30T07:44:14Z</time></trkpt><trkpt lat="47.6672592200" lon="2.0402317587"><ele>111.72</ele><time>2021-09-30T07:44:33Z</time></trkpt><trkpt lat="47.6672147121" lon="2.0400497876"><ele>111.54</ele><time>2021-09-30T07:44:44Z</time></trkpt><trkpt lat="47.6671774965" lon="2.0399589278"><ele>111.76</ele><time>2021-09-30T07:44:50Z</time></trkpt><trkpt lat="47.6671106927" lon="2.0397298504"><ele>111.90</ele><time>2021-09-30T07:45:06Z</time></trkpt><trkpt lat="47.6670210902" lon="2.0394386631"><ele>112.14</ele><time>2021-09-30T07:45:25Z</time></trkpt><trkpt lat="47.6669091079" lon="2.0391242579"><ele>112.27</ele><time>2021-09-30T07:45:42Z</time></trkpt><trkpt lat="47.6668375265" lon="2.0389231760"><ele>112.27</ele><time>2021-09-30T07:45:55Z</time></trkpt><trkpt lat="47.6667665318" lon="2.0387552027"><ele>112.34</ele><time>2021-09-30T07:46:07Z</time></trkpt><trkpt lat="47.6666497719" lon="2.0383593254"><ele>113.20</ele><time>2021-09-30T07:46:32Z</time></trkpt><trkpt lat="47.6666158251" lon="2.0382527076"><ele>113.35</ele><time>2021-09-30T07:46:39Z</time></trkpt><trkpt lat="47.6666094549" lon="2.0382372010"><ele>113.37</ele><time>2021-09-30T07:46:40Z</time></trkpt><trkpt lat="47.6665506139" lon="2.0380736701"><ele>113.32</ele><time>2021-09-30T07:46:51Z</time></trkpt><trkpt lat="47.6665120572" lon="2.0379211195"><ele>113.55</ele><time>2021-09-30T07:47:02Z</time></trkpt><trkpt lat="47.6664908510" lon="2.0378398988"><ele>113.54</ele><time>2021-09-30T07:47:08Z</time></trkpt><trkpt lat="47.6664383803" lon="2.0377103984"><ele>113.34</ele><time>2021-09-30T07:47:17Z</time></trkpt><trkpt lat="47.6664336864" lon="2.0376966521"><ele>113.33</ele><time>2021-09-30T07:47:18Z</time></trkpt><trkpt lat="47.6664296631" lon="2.0376815647"><ele>113.31</ele><time>2021-09-30T07:47:19Z</time></trkpt><trkpt lat="47.6664277352" lon="2.0376641303"><ele>113.31</ele><time>2021-09-30T07:47:20Z</time></trkpt><trkpt lat="47.6663829759" lon="2.0374402497"><ele>113.56</ele><time>2021-09-30T07:47:33Z</time></trkpt><trkpt lat="47.6662776154" lon="2.0372251701"><ele>113.56</ele><time>2021-09-30T07:47:49Z</time></trkpt><trkpt lat="47.6661852468" lon="2.0369558595"><ele>113.87</ele><time>2021-09-30T07:48:05Z</time></trkpt><trkpt lat="47.6661486179" lon="2.0368121099"><ele>113.95</ele><time>2021-09-30T07:48:14Z</time></trkpt><trkpt lat="47.6661129948" lon="2.0367015526"><ele>114.15</ele><time>2021-09-30T07:48:22Z</time></trkpt><trkpt lat="47.6659969892" lon="2.0364469104"><ele>114.41</ele><time>2021-09-30T07:48:37Z</time></trkpt><trkpt lat="47.6659466140" lon="2.0362791885"><ele>114.62</ele><time>2021-09-30T07:48:49Z</time></trkpt><trkpt lat="47.6659119129" lon="2.0361252129"><ele>114.60</ele><time>2021-09-30T07:48:58Z</time></trkpt><trkpt lat="47.6658413373" lon="2.0359051041"><ele>114.78</ele><time>2021-09-30T07:49:11Z</time></trkpt><trkpt lat="47.6657700073" lon="2.0356773678"><ele>114.98</ele><time>2021-09-30T07:49:27Z</time></trkpt><trkpt lat="47.6656585280" lon="2.0353493001"><ele>115.04</ele><time>2021-09-30T07:49:44Z</time></trkpt><trkpt lat="47.6655753795" lon="2.0351497270"><ele>115.13</ele><time>2021-09-30T07:49:57Z</time></trkpt><trkpt lat="47.6654849388" lon="2.0348313823"><ele>115.13</ele><time>2021-09-30T07:50:18Z</time></trkpt><trkpt lat="47.6653908100" lon="2.0345748123"><ele>115.32</ele><time>2021-09-30T07:50:35Z</time></trkpt><trkpt lat="47.6653523371" lon="2.0344494190"><ele>115.12</ele><time>2021-09-30T07:50:45Z</time></trkpt><trkpt lat="47.6652843598" lon="2.0342586469"><ele>115.35</ele><time>2021-09-30T07:50:58Z</time></trkpt><trkpt lat="47.6652241778" lon="2.0340645220"><ele>115.35</ele><time>2021-09-30T07:51:08Z</time></trkpt><trkpt lat="47.6651323959" lon="2.0338127296"><ele>115.99</ele><time>2021-09-30T07:51:29Z</time></trkpt><trkpt lat="47.6650120318" lon="2.0335568301"><ele>115.97</ele><time>2021-09-30T07:51:44Z</time></trkpt><trkpt lat="47.6649723016" lon="2.0333551615"><ele>115.74</ele><time>2021-09-30T07:51:56Z</time></trkpt><trkpt lat="47.6649743970" lon="2.0332764555"><ele>115.59</ele><time>2021-09-30T07:52:02Z</time></trkpt><trkpt lat="47.6649054978" lon="2.0330677461"><ele>115.37</ele><time>2021-09-30T07:52:15Z</time></trkpt><trkpt lat="47.6648720540" lon="2.0329914708"><ele>115.26</ele><time>2021-09-30T07:52:20Z</time></trkpt><trkpt lat="47.6648684498" lon="2.0329763833"><ele>115.24</ele><time>2021-09-30T07:52:21Z</time></trkpt><trkpt lat="47.6648640074" lon="2.0329599548"><ele>115.23</ele><time>2021-09-30T07:52:22Z</time></trkpt><trkpt lat="47.6648299769" lon="2.0328357350"><ele>115.07</ele><time>2021-09-30T07:52:31Z</time></trkpt><trkpt lat="47.6648175716" lon="2.0328115113"><ele>115.07</ele><time>2021-09-30T07:52:33Z</time></trkpt><trkpt lat="47.6646914240" lon="2.0325809252"><ele>115.01</ele><time>2021-09-30T07:52:49Z</time></trkpt><trkpt lat="47.6646844670" lon="2.0325678494"><ele>115.01</ele><time>2021-09-30T07:52:50Z</time></trkpt><trkpt lat="47.6646242850" lon="2.0323044062"><ele>114.92</ele><time>2021-09-30T07:53:06Z</time></trkpt><trkpt lat="47.6645595767" lon="2.0321082696"><ele>114.78</ele><time>2021-09-30T07:53:17Z</time></trkpt><trkpt lat="47.6644626819" lon="2.0318478439"><ele>114.88</ele><time>2021-09-30T07:53:28Z</time></trkpt><trkpt lat="47.6644138992" lon="2.0316764340"><ele>114.99</ele><time>2021-09-30T07:53:40Z</time></trkpt><trkpt lat="47.6644013263" lon="2.0315756835"><ele>115.26</ele><time>2021-09-30T07:53:48Z</time></trkpt><trkpt lat="47.6643600874" lon="2.0314601809"><ele>115.47</ele><time>2021-09-30T07:53:59Z</time></trkpt><trkpt lat="47.6643118914" lon="2.0312750246"><ele>115.62</ele><time>2021-09-30T07:54:10Z</time></trkpt><trkpt lat="47.6642627735" lon="2.0310986694"><ele>115.82</ele><time>2021-09-30T07:54:23Z</time></trkpt><trkpt lat="47.6642320119" lon="2.0309866872"><ele>115.66</ele><time>2021-09-30T07:54:46Z</time></trkpt><trkpt lat="47.6641212869" lon="2.0308141038"><ele>115.12</ele><time>2021-09-30T07:55:03Z</time></trkpt><trkpt lat="47.6641062833" lon="2.0307369065"><ele>114.89</ele><time>2021-09-30T07:55:07Z</time></trkpt><trkpt lat="47.6640879270" lon="2.0306932367"><ele>114.82</ele><time>2021-09-30T07:55:10Z</time></trkpt><trkpt lat="47.6640269905" lon="2.0305086672"><ele>114.67</ele><time>2021-09-30T07:55:22Z</time></trkpt><trkpt lat="47.6639445126" lon="2.0302658435"><ele>114.31</ele><time>2021-09-30T07:55:39Z</time></trkpt><trkpt lat="47.6639181934" lon="2.0301696192"><ele>114.32</ele><time>2021-09-30T07:55:45Z</time></trkpt><trkpt lat="47.6638566703" lon="2.0299861394"><ele>114.41</ele><time>2021-09-30T07:55:56Z</time></trkpt><trkpt lat="47.6638104022" lon="2.0298200101"><ele>114.39</ele><time>2021-09-30T07:56:10Z</time></trkpt><trkpt lat="47.6637104899" lon="2.0295153279"><ele>114.38</ele><time>2021-09-30T07:56:25Z</time></trkpt><trkpt lat="47.6636227313" lon="2.0292227995"><ele>114.25</ele><time>2021-09-30T07:56:40Z</time></trkpt><trkpt lat="47.6635817438" lon="2.0290560834"><ele>114.12</ele><time>2021-09-30T07:56:52Z</time></trkpt><trkpt lat="47.6635010261" lon="2.0288660657"><ele>113.91</ele><time>2021-09-30T07:57:05Z</time></trkpt><trkpt lat="47.6633547619" lon="2.0284822583"><ele>113.78</ele><time>2021-09-30T07:57:28Z</time></trkpt><trkpt lat="47.6632425282" lon="2.0281668473"><ele>113.79</ele><time>2021-09-30T07:57:45Z</time></trkpt><trkpt lat="47.6631641574" lon="2.0279407874"><ele>113.66</ele><time>2021-09-30T07:58:06Z</time></trkpt><trkpt lat="47.6631665044" lon="2.0279091038"><ele>113.66</ele><time>2021-09-30T07:58:27Z</time></trkpt><trkpt lat="47.6626260392" lon="2.0282826852"><ele>113.66</ele><time>2021-09-30T08:12:08Z</time></trkpt><trkpt lat="47.6625547931" lon="2.0283181407"><ele>113.66</ele><time>2021-09-30T08:12:18Z</time></trkpt><trkpt lat="47.6625084411" lon="2.0283422805"><ele>115.38</ele><time>2021-09-30T08:12:22Z</time></trkpt><trkpt lat="47.6623804495" lon="2.0284515806"><ele>116.54</ele><time>2021-09-30T08:12:33Z</time></trkpt><trkpt lat="47.6623413898" lon="2.0284619741"><ele>116.64</ele><time>2021-09-30T08:12:36Z</time></trkpt><trkpt lat="47.6620889269" lon="2.0286368206"><ele>117.38</ele><time>2021-09-30T08:12:56Z</time></trkpt><trkpt lat="47.6619191095" lon="2.0287577715"><ele>117.77</ele><time>2021-09-30T08:13:14Z</time></trkpt><trkpt lat="47.6617128309" lon="2.0289130881"><ele>118.14</ele><time>2021-09-30T08:13:35Z</time></trkpt><trkpt lat="47.6614875253" lon="2.0290759485"><ele>118.15</ele><time>2021-09-30T08:13:57Z</time></trkpt><trkpt lat="47.6612391695" lon="2.0292492025"><ele>117.84</ele><time>2021-09-30T08:14:20Z</time></trkpt><trkpt lat="47.6611151174" lon="2.0293758530"><ele>117.73</ele><time>2021-09-30T08:14:35Z</time></trkpt><trkpt lat="47.6609685179" lon="2.0293852407"><ele>117.78</ele><time>2021-09-30T08:14:51Z</time></trkpt><trkpt lat="47.6609012950" lon="2.0292396471"><ele>117.36</ele><time>2021-09-30T08:15:09Z</time></trkpt><trkpt lat="47.6608132012" lon="2.0289705880"><ele>116.79</ele><time>2021-09-30T08:15:30Z</time></trkpt><trkpt lat="47.6607733872" lon="2.0288285986"><ele>116.64</ele><time>2021-09-30T08:15:40Z</time></trkpt><trkpt lat="47.6583634224" lon="2.0263248403"><ele>120.00</ele><time>2021-09-30T08:24:43Z</time></trkpt><trkpt lat="47.6586188190" lon="2.0262974314"><ele>120.00</ele><time>2021-09-30T08:25:06Z</time></trkpt><trkpt lat="47.6587599702" lon="2.0262707770"><ele>118.84</ele><time>2021-09-30T08:25:20Z</time></trkpt><trkpt lat="47.6588319708" lon="2.0261731278"><ele>118.45</ele><time>2021-09-30T08:25:28Z</time></trkpt><trkpt lat="47.6588920690" lon="2.0260245167"><ele>118.50</ele><time>2021-09-30T08:25:40Z</time></trkpt><trkpt lat="47.6589219086" lon="2.0257185772"><ele>118.84</ele><time>2021-09-30T08:26:00Z</time></trkpt><trkpt lat="47.6589471381" lon="2.0255811140"><ele>119.20</ele><time>2021-09-30T08:26:10Z</time></trkpt><trkpt lat="47.6589732897" lon="2.0253050141"><ele>119.00</ele><time>2021-09-30T08:26:30Z</time></trkpt><trkpt lat="47.6590154506" lon="2.0252381265"><ele>119.08</ele><time>2021-09-30T08:26:38Z</time></trkpt><trkpt lat="47.6590513252" lon="2.0251372922"><ele>119.25</ele><time>2021-09-30T08:26:46Z</time></trkpt><trkpt lat="47.6590510737" lon="2.0248583425"><ele>119.07</ele><time>2021-09-30T08:27:01Z</time></trkpt><trkpt lat="47.6590770576" lon="2.0246748626"><ele>118.77</ele><time>2021-09-30T08:27:11Z</time></trkpt><trkpt lat="47.6590833440" lon="2.0244724397"><ele>118.21</ele><time>2021-09-30T08:27:30Z</time></trkpt><trkpt lat="47.6591518242" lon="2.0242483076"><ele>117.62</ele><time>2021-09-30T08:27:51Z</time></trkpt><trkpt lat="47.6590896305" lon="2.0243069809"><ele>117.63</ele><time>2021-09-30T08:28:17Z</time></trkpt><trkpt lat="47.6588209067" lon="2.0244685002"><ele>118.34</ele><time>2021-09-30T08:28:44Z</time></trkpt><trkpt lat="47.6585650072" lon="2.0244995132"><ele>118.73</ele><time>2021-09-30T08:29:07Z</time></trkpt><trkpt lat="47.6585397776" lon="2.0244938135"><ele>118.77</ele><time>2021-09-30T08:29:09Z</time></trkpt><trkpt lat="47.6585279591" lon="2.0244874433"><ele>118.82</ele><time>2021-09-30T08:29:10Z</time></trkpt><trkpt lat="47.6584412064" lon="2.0244826656"><ele>119.05</ele><time>2021-09-30T08:29:18Z</time></trkpt><trkpt lat="47.6583101135" lon="2.0245272573"><ele>119.23</ele><time>2021-09-30T08:29:32Z</time></trkpt><trkpt lat="47.6580929384" lon="2.0245840028"><ele>119.58</ele><time>2021-09-30T08:29:52Z</time></trkpt><trkpt lat="47.6580068562" lon="2.0245858468"><ele>120.13</ele><time>2021-09-30T08:30:07Z</time></trkpt><trkpt lat="47.6579894219" lon="2.0245923009"><ele>120.13</ele><time>2021-09-30T08:30:08Z</time></trkpt><trkpt lat="47.6579501107" lon="2.0246239007"><ele>120.16</ele><time>2021-09-30T08:30:11Z</time></trkpt><trkpt lat="47.6578244660" lon="2.0246387366"><ele>120.28</ele><time>2021-09-30T08:30:24Z</time></trkpt><trkpt lat="47.6577671338" lon="2.0246617869"><ele>120.45</ele><time>2021-09-30T08:30:36Z</time></trkpt><trkpt lat="47.6577546448" lon="2.0246639661"><ele>120.45</ele><time>2021-09-30T08:30:37Z</time></trkpt><trkpt lat="47.6577358693" lon="2.0246672351"><ele>120.45</ele><time>2021-09-30T08:30:38Z</time></trkpt><trkpt lat="47.6576569956" lon="2.0246825740"><ele>120.35</ele><time>2021-09-30T08:30:44Z</time></trkpt><trkpt lat="47.6575510483" lon="2.0246981643"><ele>120.41</ele><time>2021-09-30T08:30:53Z</time></trkpt><trkpt lat="47.6573567558" lon="2.0248119067"><ele>120.57</ele><time>2021-09-30T08:31:10Z</time></trkpt><trkpt lat="47.6572391577" lon="2.0248260722"><ele>120.86</ele><time>2021-09-30T08:31:19Z</time></trkpt><trkpt lat="47.6570396684" lon="2.0247946400"><ele>121.36</ele><time>2021-09-30T08:31:31Z</time></trkpt><trkpt lat="47.6569288597" lon="2.0247948077"><ele>121.38</ele><time>2021-09-30T08:31:41Z</time></trkpt><trkpt lat="47.6558455825" lon="2.0250368770"><ele>122.62</ele><time>2021-09-30T08:33:14Z</time></trkpt><trkpt lat="47.6558366977" lon="2.0250467677"><ele>122.62</ele><time>2021-09-30T08:33:15Z</time></trkpt><trkpt lat="47.6558163296" lon="2.0250666328"><ele>122.66</ele><time>2021-09-30T08:33:17Z</time></trkpt><trkpt lat="47.6558071095" lon="2.0250769425"><ele>122.68</ele><time>2021-09-30T08:33:18Z</time></trkpt><trkpt lat="47.6557971351" lon="2.0250856597"><ele>122.70</ele><time>2021-09-30T08:33:19Z</time></trkpt><trkpt lat="47.6557638589" lon="2.0251056086"><ele>122.83</ele><time>2021-09-30T08:33:22Z</time></trkpt><trkpt lat="47.6557061076" lon="2.0251291618"><ele>122.92</ele><time>2021-09-30T08:33:27Z</time></trkpt><trkpt lat="47.6556599233" lon="2.0251569897"><ele>122.99</ele><time>2021-09-30T08:33:33Z</time></trkpt><trkpt lat="47.6555263158" lon="2.0253480133"><ele>123.65</ele><time>2021-09-30T08:33:48Z</time></trkpt><trkpt lat="47.6554982364" lon="2.0253689680"><ele>123.90</ele><time>2021-09-30T08:33:51Z</time></trkpt><trkpt lat="47.6554315165" lon="2.0254863147"><ele>124.09</ele><time>2021-09-30T08:34:00Z</time></trkpt><trkpt lat="47.6553563308" lon="2.0256129652"><ele>124.16</ele><time>2021-09-30T08:34:08Z</time></trkpt><trkpt lat="47.6550985035" lon="2.0259401947"><ele>124.45</ele><time>2021-09-30T08:34:36Z</time></trkpt><trkpt lat="47.6543621533" lon="2.0264106710"><ele>125.56</ele><time>2021-09-30T08:35:35Z</time></trkpt><trkpt lat="47.6540834550" lon="2.0265493076"><ele>126.20</ele><time>2021-09-30T08:36:01Z</time></trkpt><trkpt lat="47.6538190898" lon="2.0268013515"><ele>126.59</ele><time>2021-09-30T08:36:29Z</time></trkpt><trkpt lat="47.6538120490" lon="2.0268133376"><ele>126.60</ele><time>2021-09-30T08:36:30Z</time></trkpt><trkpt lat="47.6538049243" lon="2.0268249046"><ele>126.57</ele><time>2021-09-30T08:36:31Z</time></trkpt><trkpt lat="47.6537919324" lon="2.0268631261"><ele>126.52</ele><time>2021-09-30T08:36:34Z</time></trkpt><trkpt lat="47.6535781939" lon="2.0271585882"><ele>126.67</ele><time>2021-09-30T08:36:56Z</time></trkpt><trkpt lat="47.6535626873" lon="2.0271761063"><ele>126.71</ele><time>2021-09-30T08:36:57Z</time></trkpt><trkpt lat="47.6535003260" lon="2.0272255596"><ele>126.82</ele><time>2021-09-30T08:37:02Z</time></trkpt><trkpt lat="47.6534021739" lon="2.0273281541"><ele>127.00</ele><time>2021-09-30T08:37:10Z</time></trkpt><trkpt lat="47.6533905230" lon="2.0273442473"><ele>127.02</ele><time>2021-09-30T08:37:11Z</time></trkpt><trkpt lat="47.6533410698" lon="2.0273913536"><ele>127.09</ele><time>2021-09-30T08:37:15Z</time></trkpt><trkpt lat="47.6531719230" lon="2.0275895856"><ele>127.41</ele><time>2021-09-30T08:37:31Z</time></trkpt><trkpt lat="47.6530474517" lon="2.0278055035"><ele>127.87</ele><time>2021-09-30T08:37:47Z</time></trkpt><trkpt lat="47.6529929694" lon="2.0278550405"><ele>127.90</ele><time>2021-09-30T08:37:52Z</time></trkpt><trkpt lat="47.6529829949" lon="2.0278617460"><ele>127.91</ele><time>2021-09-30T08:37:53Z</time></trkpt><trkpt lat="47.6529726852" lon="2.0278671943"><ele>127.94</ele><time>2021-09-30T08:37:54Z</time></trkpt><trkpt lat="47.6529623754" lon="2.0278760791"><ele>127.97</ele><time>2021-09-30T08:37:55Z</time></trkpt><trkpt lat="47.6528489683" lon="2.0279737283"><ele>128.39</ele><time>2021-09-30T08:38:05Z</time></trkpt><trkpt lat="47.6528377365" lon="2.0279832836"><ele>128.42</ele><time>2021-09-30T08:38:06Z</time></trkpt><trkpt lat="47.6528164465" lon="2.0280041546"><ele>128.50</ele><time>2021-09-30T08:38:08Z</time></trkpt><trkpt lat="47.6528085675" lon="2.0280191582"><ele>128.53</ele><time>2021-09-30T08:38:09Z</time></trkpt><trkpt lat="47.6527791470" lon="2.0280466508"><ele>128.76</ele><time>2021-09-30T08:38:13Z</time></trkpt><trkpt lat="47.6527734473" lon="2.0280587208"><ele>128.76</ele><time>2021-09-30T08:38:14Z</time></trkpt><trkpt lat="47.6527643949" lon="2.0280660130"><ele>128.81</ele><time>2021-09-30T08:38:15Z</time></trkpt><trkpt lat="47.6526421029" lon="2.0282062422"><ele>129.35</ele><time>2021-09-30T08:38:29Z</time></trkpt><trkpt lat="47.6525943261" lon="2.0282685198"><ele>129.37</ele><time>2021-09-30T08:38:34Z</time></trkpt><trkpt lat="47.6525847707" lon="2.0282831881"><ele>129.39</ele><time>2021-09-30T08:38:35Z</time></trkpt><trkpt lat="47.6525719464" lon="2.0283006225"><ele>129.41</ele><time>2021-09-30T08:38:36Z</time></trkpt><trkpt lat="47.6523820125" lon="2.0284475572"><ele>129.84</ele><time>2021-09-30T08:38:54Z</time></trkpt><trkpt lat="47.6523737982" lon="2.0284586214"><ele>129.87</ele><time>2021-09-30T08:38:55Z</time></trkpt><trkpt lat="47.6523629017" lon="2.0284694340"><ele>129.91</ele><time>2021-09-30T08:38:56Z</time></trkpt><trkpt lat="47.6521967724" lon="2.0286151115"><ele>130.25</ele><time>2021-09-30T08:39:15Z</time></trkpt><trkpt lat="47.6521779131" lon="2.0286303665"><ele>130.33</ele><time>2021-09-30T08:39:17Z</time></trkpt><trkpt lat="47.6521663461" lon="2.0286379941"><ele>130.38</ele><time>2021-09-30T08:39:18Z</time></trkpt><trkpt lat="47.6521548629" lon="2.0286444481"><ele>130.46</ele><time>2021-09-30T08:39:19Z</time></trkpt><trkpt lat="47.6519355923" lon="2.0288112480"><ele>131.60</ele><time>2021-09-30T08:39:40Z</time></trkpt><trkpt lat="47.6517280564" lon="2.0289921295"><ele>132.12</ele><time>2021-09-30T08:40:00Z</time></trkpt><trkpt lat="47.6515227836" lon="2.0291292574"><ele>132.53</ele><time>2021-09-30T08:40:20Z</time></trkpt><trkpt lat="47.6513918582" lon="2.0292637032"><ele>132.77</ele><time>2021-09-30T08:40:34Z</time></trkpt><trkpt lat="47.6513684727" lon="2.0292782877"><ele>132.84</ele><time>2021-09-30T08:40:36Z</time></trkpt><trkpt lat="47.6513564866" lon="2.0292840712"><ele>132.88</ele><time>2021-09-30T08:40:37Z</time></trkpt><trkpt lat="47.6513451710" lon="2.0292944647"><ele>132.97</ele><time>2021-09-30T08:40:38Z</time></trkpt><trkpt lat="47.6513361186" lon="2.0293040201"><ele>133.05</ele><time>2021-09-30T08:40:39Z</time></trkpt><trkpt lat="47.6513256412" lon="2.0293128211"><ele>133.12</ele><time>2021-09-30T08:40:40Z</time></trkpt><trkpt lat="47.6513159182" lon="2.0293215383"><ele>133.17</ele><time>2021-09-30T08:40:41Z</time></trkpt><trkpt lat="47.6511239726" lon="2.0294988994"><ele>133.72</ele><time>2021-09-30T08:40:59Z</time></trkpt><trkpt lat="47.6510000043" lon="2.0296356920"><ele>134.39</ele><time>2021-09-30T08:41:13Z</time></trkpt><trkpt lat="47.6509477012" lon="2.0297115482"><ele>134.82</ele><time>2021-09-30T08:41:20Z</time></trkpt><trkpt lat="47.6508854236" lon="2.0300256182"><ele>135.34</ele><time>2021-09-30T08:41:40Z</time></trkpt><trkpt lat="47.6508316118" lon="2.0303073339"><ele>135.74</ele><time>2021-09-30T08:41:56Z</time></trkpt><trkpt lat="47.6507640537" lon="2.0305874571"><ele>136.25</ele><time>2021-09-30T08:42:13Z</time></trkpt><trkpt lat="47.6507397462" lon="2.0307834260"><ele>136.34</ele><time>2021-09-30T08:42:33Z</time></trkpt><trkpt lat="47.6506645605" lon="2.0311479550"><ele>136.46</ele><time>2021-09-30T08:42:55Z</time></trkpt><trkpt lat="47.6505703479" lon="2.0315857418"><ele>136.59</ele><time>2021-09-30T08:43:18Z</time></trkpt><trkpt lat="47.6505065616" lon="2.0318935253"><ele>136.81</ele><time>2021-09-30T08:43:38Z</time></trkpt><trkpt lat="47.6504322980" lon="2.0322870556"><ele>137.14</ele><time>2021-09-30T08:44:00Z</time></trkpt><trkpt lat="47.6503529213" lon="2.0326806698"><ele>137.39</ele><time>2021-09-30T08:44:22Z</time></trkpt><trkpt lat="47.6503099222" lon="2.0329066459"><ele>137.11</ele><time>2021-09-30T08:44:33Z</time></trkpt><trkpt lat="47.6502368320" lon="2.0331676584"><ele>136.71</ele><time>2021-09-30T08:44:52Z</time></trkpt><trkpt lat="47.6502202358" lon="2.0335532259"><ele>136.76</ele><time>2021-09-30T08:45:13Z</time></trkpt><trkpt lat="47.6502554398" lon="2.0338289067"><ele>137.07</ele><time>2021-09-30T08:45:28Z</time></trkpt><trkpt lat="47.6503253449" lon="2.0340541285"><ele>137.53</ele><time>2021-09-30T08:45:43Z</time></trkpt><trkpt lat="47.6503955852" lon="2.0343431365"><ele>138.17</ele><time>2021-09-30T08:46:01Z</time></trkpt><trkpt lat="47.6504275203" lon="2.0346815977"><ele>137.94</ele><time>2021-09-30T08:46:17Z</time></trkpt><trkpt lat="47.6504316274" lon="2.0347009599"><ele>137.94</ele><time>2021-09-30T08:46:18Z</time></trkpt><trkpt lat="47.6504312083" lon="2.0347256027"><ele>138.40</ele><time>2021-09-30T08:46:19Z</time></trkpt><trkpt lat="47.6504294481" lon="2.0347475633"><ele>138.52</ele><time>2021-09-30T08:46:20Z</time></trkpt><trkpt lat="47.6504289452" lon="2.0347685181"><ele>138.58</ele><time>2021-09-30T08:46:21Z</time></trkpt><trkpt lat="47.6504307892" lon="2.0348059852"><ele>138.49</ele><time>2021-09-30T08:46:23Z</time></trkpt><trkpt lat="47.6504319627" lon="2.0348313823"><ele>138.50</ele><time>2021-09-30T08:46:24Z</time></trkpt><trkpt lat="47.6504314598" lon="2.0348563604"><ele>138.51</ele><time>2021-09-30T08:46:25Z</time></trkpt><trkpt lat="47.6504303701" lon="2.0348797459"><ele>138.46</ele><time>2021-09-30T08:46:26Z</time></trkpt><trkpt lat="47.6504286099" lon="2.0348981861"><ele>138.41</ele><time>2021-09-30T08:46:27Z</time></trkpt><trkpt lat="47.6504293643" lon="2.0349164587"><ele>138.36</ele><time>2021-09-30T08:46:28Z</time></trkpt><trkpt lat="47.6504296158" lon="2.0349380840"><ele>138.29</ele><time>2021-09-30T08:46:29Z</time></trkpt><trkpt lat="47.6504825056" lon="2.0352808200"><ele>138.44</ele><time>2021-09-30T08:46:48Z</time></trkpt><trkpt lat="47.6505369879" lon="2.0355741028"><ele>138.70</ele><time>2021-09-30T08:47:05Z</time></trkpt><trkpt lat="47.6505771372" lon="2.0358511247"><ele>138.49</ele><time>2021-09-30T08:47:22Z</time></trkpt><trkpt lat="47.6506182924" lon="2.0361669548"><ele>138.41</ele><time>2021-09-30T08:47:39Z</time></trkpt><trkpt lat="47.6506725233" lon="2.0364613272"><ele>138.40</ele><time>2021-09-30T08:47:56Z</time></trkpt><trkpt lat="47.6507204678" lon="2.0367477369"><ele>138.47</ele><time>2021-09-30T08:48:14Z</time></trkpt><trkpt lat="47.6507239044" lon="2.0367655065"><ele>138.47</ele><time>2021-09-30T08:48:15Z</time></trkpt><trkpt lat="47.6507715136" lon="2.0370140299"><ele>138.41</ele><time>2021-09-30T08:48:31Z</time></trkpt><trkpt lat="47.6507730223" lon="2.0370289497"><ele>138.40</ele><time>2021-09-30T08:48:32Z</time></trkpt><trkpt lat="47.6508137584" lon="2.0373009425"><ele>138.51</ele><time>2021-09-30T08:48:48Z</time></trkpt><trkpt lat="47.6508401614" lon="2.0375274215"><ele>138.55</ele><time>2021-09-30T08:49:02Z</time></trkpt><trkpt lat="47.6508837473" lon="2.0377166010"><ele>138.53</ele><time>2021-09-30T08:49:16Z</time></trkpt><trkpt lat="47.6508874353" lon="2.0378365461"><ele>138.71</ele><time>2021-09-30T08:49:38Z</time></trkpt><trkpt lat="47.6508838311" lon="2.0378414076"><ele>138.71</ele><time>2021-09-30T08:49:48Z</time></trkpt><trkpt lat="47.6455698721" lon="2.0409618225"><ele>138.74</ele><time>2021-09-30T09:00:54Z</time></trkpt><trkpt lat="47.6454997156" lon="2.0407554600"><ele>139.17</ele><time>2021-09-30T09:01:07Z</time></trkpt><trkpt lat="47.6454352587" lon="2.0405164082"><ele>139.45</ele><time>2021-09-30T09:01:21Z</time></trkpt><trkpt lat="47.6453597378" lon="2.0402649511"><ele>139.42</ele><time>2021-09-30T09:01:37Z</time></trkpt><trkpt lat="47.6452698000" lon="2.0399948023"><ele>139.19</ele><time>2021-09-30T09:01:53Z</time></trkpt><trkpt lat="47.6451980509" lon="2.0397661440"><ele>138.95</ele><time>2021-09-30T09:02:07Z</time></trkpt><trkpt lat="47.6451215241" lon="2.0395202190"><ele>138.85</ele><time>2021-09-30T09:02:22Z</time></trkpt><trkpt lat="47.6450568158" lon="2.0392757189"><ele>138.52</ele><time>2021-09-30T09:02:37Z</time></trkpt><trkpt lat="47.6449869946" lon="2.0390382595"><ele>138.29</ele><time>2021-09-30T09:02:51Z</time></trkpt><trkpt lat="47.6449058577" lon="2.0388128702"><ele>137.99</ele><time>2021-09-30T09:03:05Z</time></trkpt><trkpt lat="47.6448150817" lon="2.0386121236"><ele>137.97</ele><time>2021-09-30T09:03:20Z</time></trkpt><trkpt lat="47.6447356213" lon="2.0384138077"><ele>137.80</ele><time>2021-09-30T09:03:33Z</time></trkpt><trkpt lat="47.6446444262" lon="2.0381864067"><ele>137.73</ele><time>2021-09-30T09:03:48Z</time></trkpt><trkpt lat="47.6445588470" lon="2.0379893482"><ele>137.80</ele><time>2021-09-30T09:04:02Z</time></trkpt><trkpt lat="47.6444380637" lon="2.0377602708"><ele>137.84</ele><time>2021-09-30T09:04:17Z</time></trkpt><trkpt lat="47.6443401631" lon="2.0375243202"><ele>137.97</ele><time>2021-09-30T09:04:33Z</time></trkpt><trkpt lat="47.6442458667" lon="2.0373031218"><ele>137.78</ele><time>2021-09-30T09:04:48Z</time></trkpt><trkpt lat="47.6441503968" lon="2.0369983558"><ele>138.09</ele><time>2021-09-30T09:05:06Z</time></trkpt><trkpt lat="47.6440787315" lon="2.0367909037"><ele>138.00</ele><time>2021-09-30T09:05:19Z</time></trkpt><trkpt lat="47.6440253388" lon="2.0365248621"><ele>137.92</ele><time>2021-09-30T09:05:34Z</time></trkpt><trkpt lat="47.6439279411" lon="2.0363376942"><ele>138.21</ele><time>2021-09-30T09:05:49Z</time></trkpt><trkpt lat="47.6437473111" lon="2.0365117863"><ele>138.05</ele><time>2021-09-30T09:06:09Z</time></trkpt><trkpt lat="47.6435839478" lon="2.0367230941"><ele>138.38</ele><time>2021-09-30T09:06:29Z</time></trkpt><trkpt lat="47.6433803514" lon="2.0369841065"><ele>138.27</ele><time>2021-09-30T09:06:48Z</time></trkpt><trkpt lat="47.6432073489" lon="2.0372033771"><ele>137.87</ele><time>2021-09-30T09:07:07Z</time></trkpt><trkpt lat="47.6429563109" lon="2.0374558400"><ele>137.46</ele><time>2021-09-30T09:07:31Z</time></trkpt><trkpt lat="47.6427432429" lon="2.0376995020"><ele>136.91</ele><time>2021-09-30T09:07:53Z</time></trkpt><trkpt lat="47.6425325219" lon="2.0379655436"><ele>136.76</ele><time>2021-09-30T09:08:15Z</time></trkpt><trkpt lat="47.6424683165" lon="2.0380562358"><ele>136.99</ele><time>2021-09-30T09:08:22Z</time></trkpt><trkpt lat="47.6422814839" lon="2.0382750873"><ele>136.76</ele><time>2021-09-30T09:08:40Z</time></trkpt><trkpt lat="47.6421107445" lon="2.0385044999"><ele>137.14</ele><time>2021-09-30T09:08:55Z</time></trkpt><trkpt lat="47.6420135982" lon="2.0385873970"><ele>137.35</ele><time>2021-09-30T09:09:05Z</time></trkpt><trkpt lat="47.6418510731" lon="2.0387697872"><ele>137.14</ele><time>2021-09-30T09:09:21Z</time></trkpt><trkpt lat="47.6416685153" lon="2.0389791671"><ele>137.08</ele><time>2021-09-30T09:09:39Z</time></trkpt><trkpt lat="47.6415367518" lon="2.0391669217"><ele>136.71</ele><time>2021-09-30T09:09:56Z</time></trkpt><trkpt lat="47.6413987018" lon="2.0393508207"><ele>136.85</ele><time>2021-09-30T09:10:13Z</time></trkpt><trkpt lat="47.6412893180" lon="2.0395586081"><ele>137.19</ele><time>2021-09-30T09:10:28Z</time></trkpt><trkpt lat="47.6412468217" lon="2.0396347996"><ele>137.52</ele><time>2021-09-30T09:10:34Z</time></trkpt><trkpt lat="47.6412239391" lon="2.0396792237"><ele>137.56</ele><time>2021-09-30T09:10:37Z</time></trkpt><trkpt lat="47.6411810238" lon="2.0397469494"><ele>137.64</ele><time>2021-09-30T09:10:42Z</time></trkpt><trkpt lat="47.6410076860" lon="2.0399915334"><ele>138.00</ele><time>2021-09-30T09:11:00Z</time></trkpt><trkpt lat="47.6409333386" lon="2.0402306691"><ele>138.15</ele><time>2021-09-30T09:11:16Z</time></trkpt><trkpt lat="47.6409857254" lon="2.0403796155"><ele>138.67</ele><time>2021-09-30T09:11:25Z</time></trkpt><trkpt lat="47.6409961190" lon="2.0404006541"><ele>138.68</ele><time>2021-09-30T09:11:26Z</time></trkpt><trkpt lat="47.6410822012" lon="2.0405672025"><ele>139.06</ele><time>2021-09-30T09:11:39Z</time></trkpt><trkpt lat="47.6412309799" lon="2.0408094395"><ele>139.30</ele><time>2021-09-30T09:11:57Z</time></trkpt><trkpt lat="47.6413889788" lon="2.0410838630"><ele>139.59</ele><time>2021-09-30T09:12:16Z</time></trkpt><trkpt lat="47.6415292080" lon="2.0413271058"><ele>139.46</ele><time>2021-09-30T09:12:35Z</time></trkpt><trkpt lat="47.6416109316" lon="2.0415223204"><ele>139.42</ele><time>2021-09-30T09:12:48Z</time></trkpt><trkpt lat="47.6416965947" lon="2.0417500567"><ele>139.24</ele><time>2021-09-30T09:13:03Z</time></trkpt><trkpt lat="47.6417525858" lon="2.0418736059"><ele>139.05</ele><time>2021-09-30T09:13:11Z</time></trkpt><trkpt lat="47.6419218164" lon="2.0421567466"><ele>138.62</ele><time>2021-09-30T09:13:31Z</time></trkpt><trkpt lat="47.6420391630" lon="2.0423770230"><ele>138.68</ele><time>2021-09-30T09:13:48Z</time></trkpt><trkpt lat="47.6421825774" lon="2.0426171646"><ele>138.43</ele><time>2021-09-30T09:14:05Z</time></trkpt><trkpt lat="47.6422995888" lon="2.0428416319"><ele>138.38</ele><time>2021-09-30T09:14:23Z</time></trkpt><trkpt lat="47.6424238086" lon="2.0430702064"><ele>138.42</ele><time>2021-09-30T09:14:39Z</time></trkpt><trkpt lat="47.6426058635" lon="2.0433883835"><ele>138.55</ele><time>2021-09-30T09:15:03Z</time></trkpt><trkpt lat="47.6427233778" lon="2.0436308719"><ele>138.43</ele><time>2021-09-30T09:15:20Z</time></trkpt><trkpt lat="47.6428344380" lon="2.0438493881"><ele>138.22</ele><time>2021-09-30T09:15:36Z</time></trkpt><trkpt lat="47.6429884136" lon="2.0441254880"><ele>138.25</ele><time>2021-09-30T09:15:57Z</time></trkpt><trkpt lat="47.6431398746" lon="2.0444059465"><ele>138.25</ele><time>2021-09-30T09:16:17Z</time></trkpt><trkpt lat="47.6433147211" lon="2.0447155740"><ele>138.07</ele><time>2021-09-30T09:16:39Z</time></trkpt><trkpt lat="47.6434451435" lon="2.0450303145"><ele>138.33</ele><time>2021-09-30T09:17:01Z</time></trkpt><trkpt lat="47.6436158828" lon="2.0453304704"><ele>138.54</ele><time>2021-09-30T09:17:23Z</time></trkpt><trkpt lat="47.6437927410" lon="2.0456534252"><ele>138.57</ele><time>2021-09-30T09:17:46Z</time></trkpt><trkpt lat="47.6439885423" lon="2.0459842589"><ele>138.40</ele><time>2021-09-30T09:18:12Z</time></trkpt><trkpt lat="47.6441227365" lon="2.0463037770"><ele>138.34</ele><time>2021-09-30T09:18:33Z</time></trkpt><trkpt lat="47.6443114970" lon="2.0465960540"><ele>138.44</ele><time>2021-09-30T09:18:53Z</time></trkpt><trkpt lat="47.6444269996" lon="2.0468646940"><ele>138.42</ele><time>2021-09-30T09:19:11Z</time></trkpt><trkpt lat="47.6445750240" lon="2.0471226890"><ele>138.42</ele><time>2021-09-30T09:19:29Z</time></trkpt><trkpt lat="47.6447432488" lon="2.0474361721"><ele>138.59</ele><time>2021-09-30T09:19:52Z</time></trkpt><trkpt lat="47.6448932849" lon="2.0477265213"><ele>138.80</ele><time>2021-09-30T09:20:12Z</time></trkpt><trkpt lat="47.6450948697" lon="2.0477517508"><ele>139.20</ele><time>2021-09-30T09:20:30Z</time></trkpt><trkpt lat="47.6451566443" lon="2.0477007888"><ele>139.29</ele><time>2021-09-30T09:20:35Z</time></trkpt><trkpt lat="47.6451706421" lon="2.0476810075"><ele>139.30</ele><time>2021-09-30T09:20:36Z</time></trkpt><trkpt lat="47.6451797783" lon="2.0476585440"><ele>139.30</ele><time>2021-09-30T09:20:37Z</time></trkpt><trkpt lat="47.6452116296" lon="2.0474393573"><ele>139.18</ele><time>2021-09-30T09:20:52Z</time></trkpt><trkpt lat="47.6452226937" lon="2.0473826956"><ele>139.12</ele><time>2021-09-30T09:20:56Z</time></trkpt><trkpt lat="47.6452240348" lon="2.0473586395"><ele>139.12</ele><time>2021-09-30T09:20:57Z</time></trkpt><trkpt lat="47.6452300698" lon="2.0472958591"><ele>139.08</ele><time>2021-09-30T09:21:00Z</time></trkpt><trkpt lat="47.6452305727" lon="2.0472788438"><ele>139.08</ele><time>2021-09-30T09:21:01Z</time></trkpt><trkpt lat="47.6452262141" lon="2.0472569671"><ele>139.07</ele><time>2021-09-30T09:21:02Z</time></trkpt><trkpt lat="47.6452238671" lon="2.0472369343"><ele>139.06</ele><time>2021-09-30T09:21:03Z</time></trkpt><trkpt lat="47.6452238671" lon="2.0472165663"><ele>139.04</ele><time>2021-09-30T09:21:04Z</time></trkpt><trkpt lat="47.6452216879" lon="2.0471967012"><ele>139.03</ele><time>2021-09-30T09:21:05Z</time></trkpt><trkpt lat="47.6452188380" lon="2.0471748244"><ele>139.03</ele><time>2021-09-30T09:21:06Z</time></trkpt><trkpt lat="47.6452162396" lon="2.0471541211"><ele>139.03</ele><time>2021-09-30T09:21:07Z</time></trkpt><trkpt lat="47.6452246215" lon="2.0468640234"><ele>138.96</ele><time>2021-09-30T09:21:22Z</time></trkpt><trkpt lat="47.6452393737" lon="2.0465895999"><ele>139.11</ele><time>2021-09-30T09:21:39Z</time></trkpt><trkpt lat="47.6453220192" lon="2.0464781206"><ele>138.62</ele><time>2021-09-30T09:21:54Z</time></trkpt><trkpt lat="47.6454697922" lon="2.0464549027"><ele>138.49</ele><time>2021-09-30T09:22:09Z</time></trkpt><trkpt lat="47.6455467381" lon="2.0464022644"><ele>137.91</ele><time>2021-09-30T09:22:21Z</time></trkpt><trkpt lat="47.6457810123" lon="2.0462644659"><ele>137.83</ele><time>2021-09-30T09:22:42Z</time></trkpt><trkpt lat="47.6458901446" lon="2.0462889411"><ele>137.93</ele><time>2021-09-30T09:22:51Z</time></trkpt><trkpt lat="47.6460182201" lon="2.0465909410"><ele>138.04</ele><time>2021-09-30T09:23:10Z</time></trkpt><trkpt lat="47.6460639015" lon="2.0468468405"><ele>138.13</ele><time>2021-09-30T09:23:25Z</time></trkpt><trkpt lat="47.6461217366" lon="2.0471370220"><ele>138.21</ele><time>2021-09-30T09:23:40Z</time></trkpt><trkpt lat="47.6461672504" lon="2.0474940073"><ele>138.65</ele><time>2021-09-30T09:23:58Z</time></trkpt><trkpt lat="47.6461740397" lon="2.0476028882"><ele>138.65</ele><time>2021-09-30T09:24:04Z</time></trkpt><trkpt lat="47.6461772248" lon="2.0476235077"><ele>138.65</ele><time>2021-09-30T09:24:05Z</time></trkpt><trkpt lat="47.6461783145" lon="2.0476472285"><ele>138.66</ele><time>2021-09-30T09:24:06Z</time></trkpt><trkpt lat="47.6461797394" lon="2.0476688538"><ele>138.67</ele><time>2021-09-30T09:24:07Z</time></trkpt><trkpt lat="47.6461855229" lon="2.0476914849"><ele>138.69</ele><time>2021-09-30T09:24:08Z</time></trkpt><trkpt lat="47.6462254208" lon="2.0480269287"><ele>138.85</ele><time>2021-09-30T09:24:24Z</time></trkpt><trkpt lat="47.6462778077" lon="2.0483171102"><ele>138.87</ele><time>2021-09-30T09:24:39Z</time></trkpt><trkpt lat="47.6463177055" lon="2.0486170985"><ele>139.28</ele><time>2021-09-30T09:24:56Z</time></trkpt><trkpt lat="47.6463820785" lon="2.0490548015"><ele>139.40</ele><time>2021-09-30T09:25:22Z</time></trkpt><trkpt lat="47.6464843377" lon="2.0493934304"><ele>139.48</ele><time>2021-09-30T09:25:45Z</time></trkpt><trkpt lat="47.6465389039" lon="2.0496038161"><ele>139.54</ele><time>2021-09-30T09:25:57Z</time></trkpt><trkpt lat="47.6466127485" lon="2.0498676784"><ele>139.98</ele><time>2021-09-30T09:26:15Z</time></trkpt><trkpt lat="47.6466357987" lon="2.0499444567"><ele>140.03</ele><time>2021-09-30T09:26:19Z</time></trkpt><trkpt lat="47.6466997527" lon="2.0502779726"><ele>140.19</ele><time>2021-09-30T09:26:34Z</time></trkpt><trkpt lat="47.6467461884" lon="2.0504133403"><ele>140.14</ele><time>2021-09-30T09:26:43Z</time></trkpt><trkpt lat="47.6467594318" lon="2.0504432637"><ele>140.20</ele><time>2021-09-30T09:26:45Z</time></trkpt><trkpt lat="47.6467977371" lon="2.0505257417"><ele>140.32</ele><time>2021-09-30T09:26:50Z</time></trkpt><trkpt lat="47.6468036883" lon="2.0505508035"><ele>140.38</ele><time>2021-09-30T09:26:51Z</time></trkpt><trkpt lat="47.6469377149" lon="2.0508393925"><ele>140.46</ele><time>2021-09-30T09:27:09Z</time></trkpt><trkpt lat="47.6470082067" lon="2.0510268118"><ele>140.74</ele><time>2021-09-30T09:27:20Z</time></trkpt><trkpt lat="47.6470766030" lon="2.0513206813"><ele>141.01</ele><time>2021-09-30T09:27:37Z</time></trkpt><trkpt lat="47.6471351087" lon="2.0514761657"><ele>141.41</ele><time>2021-09-30T09:27:49Z</time></trkpt><trkpt lat="47.6472142339" lon="2.0518644154"><ele>141.11</ele><time>2021-09-30T09:28:09Z</time></trkpt><trkpt lat="47.6472856477" lon="2.0521379169"><ele>141.06</ele><time>2021-09-30T09:28:25Z</time></trkpt><trkpt lat="47.6473796926" lon="2.0524368156"><ele>140.91</ele><time>2021-09-30T09:28:41Z</time></trkpt><trkpt lat="47.6474678703" lon="2.0527769532"><ele>141.01</ele><time>2021-09-30T09:28:59Z</time></trkpt><trkpt lat="47.6475293096" lon="2.0530767739"><ele>141.06</ele><time>2021-09-30T09:29:15Z</time></trkpt><trkpt lat="47.6476134639" lon="2.0533482637"><ele>140.91</ele><time>2021-09-30T09:29:30Z</time></trkpt><trkpt lat="47.6476193313" lon="2.0533686318"><ele>140.93</ele><time>2021-09-30T09:29:31Z</time></trkpt><trkpt lat="47.6476234384" lon="2.0533856470"><ele>140.93</ele><time>2021-09-30T09:29:32Z</time></trkpt><trkpt lat="47.6477014739" lon="2.0537117869"><ele>141.29</ele><time>2021-09-30T09:29:51Z</time></trkpt><trkpt lat="47.6477658469" lon="2.0539948437"><ele>141.18</ele><time>2021-09-30T09:30:06Z</time></trkpt><trkpt lat="47.6477845386" lon="2.0540367533"><ele>141.12</ele><time>2021-09-30T09:30:09Z</time></trkpt><trkpt lat="47.6478060801" lon="2.0541629009"><ele>140.94</ele><time>2021-09-30T09:30:17Z</time></trkpt><trkpt lat="47.6478744764" lon="2.0543279406"><ele>140.91</ele><time>2021-09-30T09:30:27Z</time></trkpt><trkpt lat="47.6479302999" lon="2.0545161981"><ele>140.83</ele><time>2021-09-30T09:30:42Z</time></trkpt><trkpt lat="47.6480783243" lon="2.0544767193"><ele>140.83</ele><time>2021-09-30T09:31:01Z</time></trkpt><trkpt lat="47.6483398397" lon="2.0543833449"><ele>140.88</ele><time>2021-09-30T09:31:24Z</time></trkpt><trkpt lat="47.6485814899" lon="2.0542615559"><ele>140.73</ele><time>2021-09-30T09:31:45Z</time></trkpt><trkpt lat="47.6487688255" lon="2.0541660860"><ele>140.86</ele><time>2021-09-30T09:32:02Z</time></trkpt><trkpt lat="47.6489392295" lon="2.0541173872"><ele>140.83</ele><time>2021-09-30T09:32:19Z</time></trkpt><trkpt lat="47.6490839012" lon="2.0541174710"><ele>140.87</ele><time>2021-09-30T09:32:28Z</time></trkpt><trkpt lat="47.6492179278" lon="2.0540573727"><ele>140.76</ele><time>2021-09-30T09:32:37Z</time></trkpt><trkpt lat="47.6493318379" lon="2.0539867971"><ele>140.73</ele><time>2021-09-30T09:32:51Z</time></trkpt><trkpt lat="47.6494661160" lon="2.0539313927"><ele>140.62</ele><time>2021-09-30T09:33:02Z</time></trkpt><trkpt lat="47.6497787610" lon="2.0539801754"><ele>140.77</ele><time>2021-09-30T09:33:23Z</time></trkpt><trkpt lat="47.6498339139" lon="2.0541881304"><ele>140.42</ele><time>2021-09-30T09:33:38Z</time></trkpt><trkpt lat="47.6498791762" lon="2.0543257613"><ele>140.42</ele><time>2021-09-30T09:33:50Z</time></trkpt><trkpt lat="47.6498712134" lon="2.0544316247"><ele>140.28</ele><time>2021-09-30T09:34:11Z</time></trkpt><trkpt lat="47.6498606522" lon="2.0544520766"><ele>140.28</ele><time>2021-09-30T09:34:19Z</time></trkpt><trkpt lat="47.6499500871" lon="2.0546686649"><ele>140.28</ele><time>2021-09-30T09:34:48Z</time></trkpt><trkpt lat="47.6500524301" lon="2.0552013349"><ele>139.38</ele><time>2021-09-30T09:34:59Z</time></trkpt></trkseg></trk></gpx>